LIPL/QBS METAR and TAF weather

Enter ICAO airport designator
Station Type Date Time Source
LIPL METAR 2019/12/06 12:55 UTC NOAA

LIPL 061255Z 25003KT 6000 BKN070 06/03 Q1023 RMK BKN VIS MIN 6000 WIND THR31 /////KT WIND THR13 24003KT WHT


Station Type Date Time Source
LIPL Decoded METAR 2019/12/06 12:55 UTC NOAA

Brescia / Ghedi, Italy (LIPL) 45-25N 010-17E 97M
Dec 06, 2019 - 07:55 AM EST / 2019.12.06 1255 UTC
Wind: from the WSW (250 degrees) at 3 MPH (3 KT):0
Visibility: 3 mile(s):0
Sky conditions: mostly cloudy
Temperature: 42 F (6 C)
Dew Point: 37 F (3 C)
Relative Humidity: 81%
Pressure (altimeter): 30.21 in. Hg (1023 hPa)
ob: LIPL 061255Z 25003KT 6000 BKN070 06/03 Q1023 RMK BKN VIS MIN 6000 WIND THR31 /////KT WIND THR13 24003KT WHT
cycle: 13

Station Type Date Time Source
LIPL TAF 2019/07/15 15:33 UTC NOAA

TAF TAF LIPL 151400Z 1515/1603 VRB03KT 9999 SCT040

Example: see airport list